createdAt,value
2019-02-06T00:00:55.510Z,3.60
2019-02-06T00:03:36.990Z,3.60
2019-02-06T00:06:17.744Z,3.60
2019-02-06T00:08:59.294Z,3.60
2019-02-06T00:11:40.488Z,3.60
2019-02-06T00:14:21.790Z,3.70
2019-02-06T00:17:03.277Z,3.70
2019-02-06T00:19:44.563Z,3.70
2019-02-06T00:22:25.390Z,3.60
2019-02-06T00:25:06.820Z,3.60
2019-02-06T00:27:47.540Z,3.60
2019-02-06T00:30:28.950Z,3.60
2019-02-06T00:33:10.081Z,3.60
2019-02-06T00:35:51.580Z,3.60
2019-02-06T00:38:33.025Z,3.50
2019-02-06T00:41:14.594Z,3.50
2019-02-06T00:43:55.271Z,3.50
2019-02-06T00:46:36.688Z,3.50
2019-02-06T00:49:18.070Z,3.50
2019-02-06T00:51:59.629Z,3.50
2019-02-06T00:54:41.141Z,3.50
2019-02-06T00:57:22.581Z,3.50
2019-02-06T01:00:04.061Z,3.50
2019-02-06T01:02:45.315Z,3.40
2019-02-06T01:05:37.510Z,3.40
2019-02-06T01:08:15.826Z,3.40
2019-02-06T01:10:45.416Z,3.40
2019-02-06T01:13:34.103Z,3.40
2019-02-06T01:16:15.697Z,3.40
2019-02-06T01:18:57.241Z,3.40
2019-02-06T01:21:38.638Z,3.40
2019-02-06T01:24:20.331Z,3.30
2019-02-06T01:27:01.469Z,3.30
2019-02-06T01:29:42.413Z,3.30
2019-02-06T01:32:21.965Z,3.30
2019-02-06T01:38:01.688Z,3.40
2019-02-06T01:40:42.765Z,3.40
2019-02-06T01:43:24.358Z,3.40
2019-02-06T01:46:05.617Z,3.40
2019-02-06T01:48:46.721Z,3.40
2019-02-06T01:51:27.596Z,3.40
2019-02-06T01:54:08.935Z,3.40
2019-02-06T01:56:50.555Z,3.40
2019-02-06T01:59:32.097Z,3.40
2019-02-06T02:02:13.573Z,3.30
2019-02-06T02:04:54.452Z,3.30
2019-02-06T02:07:35.981Z,3.30
2019-02-06T02:10:17.188Z,3.20
2019-02-06T02:12:58.884Z,3.20
2019-02-06T02:15:39.965Z,3.20
2019-02-06T02:18:20.035Z,3.10
2019-02-06T02:21:00.875Z,3.10
2019-02-06T02:23:42.358Z,3.10
2019-02-06T02:26:21.947Z,3.10
2019-02-06T02:32:12.129Z,3.00
2019-02-06T02:34:53.532Z,3.00
2019-02-06T02:37:35.042Z,3.00
2019-02-06T02:40:15.709Z,3.00
2019-02-06T02:42:57.291Z,3.00
2019-02-06T02:45:38.702Z,3.00
2019-02-06T02:48:19.855Z,2.90
2019-02-06T02:51:01.014Z,2.90
2019-02-06T02:53:42.490Z,2.90
2019-02-06T02:56:23.569Z,2.90
2019-02-06T02:59:04.533Z,2.90
2019-02-06T03:05:07.679Z,2.90
2019-02-06T03:10:34.126Z,2.90
2019-02-06T03:13:15.315Z,2.90
2019-02-06T03:15:56.728Z,2.90
2019-02-06T03:18:38.123Z,2.90
2019-02-06T03:21:19.524Z,2.90
2019-02-06T03:24:00.652Z,2.80
2019-02-06T03:26:42.079Z,2.80
2019-02-06T03:29:23.366Z,2.80
2019-02-06T03:32:04.784Z,2.80
2019-02-06T03:34:46.192Z,2.70
2019-02-06T03:37:28.044Z,2.70
2019-02-06T03:40:09.512Z,2.70
2019-02-06T03:42:50.223Z,2.60
2019-02-06T03:45:31.869Z,2.60
2019-02-06T03:48:13.287Z,2.60
2019-02-06T03:50:53.308Z,2.50
2019-02-06T03:53:35.013Z,2.50
2019-02-06T03:56:16.689Z,2.50
2019-02-06T03:58:57.718Z,2.50
2019-02-06T04:01:39.157Z,2.60
2019-02-06T04:04:20.583Z,2.60
2019-02-06T04:07:02.280Z,2.60
2019-02-06T04:09:43.940Z,2.60
2019-02-06T04:12:25.468Z,2.60
2019-02-06T04:15:05.719Z,2.70
2019-02-06T04:20:54.836Z,2.70
2019-02-06T04:23:36.030Z,2.70
2019-02-06T04:26:16.766Z,2.70
2019-02-06T04:28:58.036Z,2.70
2019-02-06T04:31:38.721Z,2.70
2019-02-06T04:34:20.079Z,2.70
2019-02-06T04:37:06.803Z,2.70
2019-02-06T04:39:44.471Z,2.70
2019-02-06T04:42:26.045Z,2.70
2019-02-06T04:45:05.860Z,2.70
2019-02-06T04:47:47.161Z,2.70
2019-02-06T04:50:27.879Z,2.70
2019-02-06T04:53:09.509Z,2.70
2019-02-06T04:55:50.718Z,2.70
2019-02-06T04:58:32.134Z,2.70
2019-02-06T05:01:13.533Z,2.70
2019-02-06T05:03:54.518Z,2.70
2019-02-06T05:06:35.834Z,2.70
2019-02-06T05:09:17.337Z,2.70
2019-02-06T05:11:58.955Z,2.70
2019-02-06T05:14:39.874Z,2.70
2019-02-06T05:17:20.598Z,2.70
2019-02-06T05:20:02.138Z,2.70
2019-02-06T05:22:43.436Z,2.70
2019-02-06T05:25:24.703Z,2.70
2019-02-06T05:28:06.035Z,2.80
2019-02-06T05:30:47.487Z,2.80
2019-02-06T05:33:28.922Z,2.90
2019-02-06T05:36:10.488Z,2.90
2019-02-06T05:38:52.001Z,3.00
2019-02-06T05:41:33.470Z,3.00
2019-02-06T05:44:14.823Z,3.00
2019-02-06T05:46:56.116Z,2.90
2019-02-06T05:49:37.618Z,2.90
2019-02-06T05:52:18.485Z,2.90
2019-02-06T05:54:59.719Z,2.90
2019-02-06T05:57:40.565Z,2.90
2019-02-06T06:00:24.092Z,2.90
2019-02-06T06:03:05.897Z,2.90
2019-02-06T06:05:47.498Z,2.90
2019-02-06T06:08:28.160Z,2.80
2019-02-06T06:11:09.382Z,2.80
2019-02-06T06:13:50.186Z,2.80
2019-02-06T06:16:31.781Z,2.70
2019-02-06T06:19:13.314Z,2.70
2019-02-06T06:21:54.918Z,2.70
2019-02-06T06:24:36.474Z,2.70
2019-02-06T06:27:17.285Z,2.60
2019-02-06T06:29:58.834Z,2.70
2019-02-06T06:32:40.028Z,2.70
2019-02-06T06:35:21.521Z,2.60
2019-02-06T06:38:02.700Z,2.60
2019-02-06T06:40:43.548Z,2.50
2019-02-06T06:43:23.481Z,2.40
2019-02-06T06:46:04.237Z,2.30
2019-02-06T06:48:44.158Z,2.30
2019-02-06T06:51:24.861Z,2.30
2019-02-06T06:54:06.369Z,2.20
2019-02-06T06:56:46.328Z,2.10
2019-02-06T07:02:40.213Z,1.90
2019-02-06T07:05:21.666Z,1.90
2019-02-06T07:08:09.634Z,1.90
2019-02-06T07:10:46.542Z,1.90
2019-02-06T07:13:27.576Z,2.00
2019-02-06T07:16:08.800Z,2.00
2019-02-06T07:18:49.871Z,2.00
2019-02-06T07:21:31.050Z,2.10
2019-02-06T07:24:12.430Z,2.20
2019-02-06T07:26:54.017Z,2.20
2019-02-06T07:29:35.409Z,2.30
2019-02-06T07:32:17.061Z,2.40
2019-02-06T07:34:56.631Z,2.40
2019-02-06T07:40:44.941Z,2.50
2019-02-06T07:43:26.351Z,2.50
2019-02-06T07:46:07.566Z,2.60
2019-02-06T07:48:49.111Z,2.60
2019-02-06T07:51:29.874Z,2.60
2019-02-06T07:54:11.374Z,2.60
2019-02-06T07:56:52.330Z,2.60
2019-02-06T07:59:32.521Z,2.70
2019-02-06T08:02:13.306Z,2.70
2019-02-06T08:04:54.125Z,2.70
2019-02-06T08:07:35.488Z,2.70
2019-02-06T08:10:16.566Z,2.80
2019-02-06T08:12:57.384Z,2.90
2019-02-06T08:15:38.745Z,2.90
2019-02-06T08:18:19.960Z,3.00
2019-02-06T08:21:01.394Z,3.00
2019-02-06T08:23:42.738Z,3.10
2019-02-06T08:26:24.258Z,3.20
2019-02-06T08:29:05.728Z,3.20
2019-02-06T08:31:46.564Z,3.30
2019-02-06T08:34:27.577Z,3.40
2019-02-06T08:37:07.224Z,3.50
2019-02-06T08:39:48.744Z,3.60
2019-02-06T08:42:30.042Z,3.80
2019-02-06T08:45:11.613Z,3.90
2019-02-06T08:47:53.025Z,4.10
2019-02-06T08:50:34.583Z,4.20
2019-02-06T08:53:16.002Z,4.30
2019-02-06T08:55:57.149Z,4.50
2019-02-06T08:58:38.519Z,4.70
2019-02-06T09:01:19.465Z,4.90
2019-02-06T09:04:00.994Z,5.10
2019-02-06T09:06:41.733Z,5.30
2019-02-06T09:09:21.975Z,5.50
2019-02-06T09:12:03.084Z,5.70
2019-02-06T09:14:44.194Z,5.80
2019-02-06T09:17:25.023Z,5.90
2019-02-06T09:20:06.500Z,6.10
2019-02-06T09:22:48.181Z,6.30
2019-02-06T09:25:29.468Z,6.40
2019-02-06T09:28:10.796Z,6.60
2019-02-06T09:30:52.222Z,6.70
2019-02-06T09:33:33.487Z,6.80
2019-02-06T09:36:14.131Z,7.00
2019-02-06T09:38:55.682Z,7.00
2019-02-06T09:41:36.887Z,7.10
2019-02-06T09:44:18.157Z,7.30
2019-02-06T09:46:59.387Z,7.40
2019-02-06T09:49:41.709Z,7.50
2019-02-06T09:52:25.679Z,7.60
2019-02-06T09:55:05.192Z,7.80
2019-02-06T09:57:45.818Z,7.80
2019-02-06T10:00:29.468Z,7.90
2019-02-06T10:03:18.156Z,7.90
2019-02-06T10:05:59.236Z,8.00
2019-02-06T10:08:40.321Z,8.10
2019-02-06T10:11:21.751Z,8.20
2019-02-06T10:14:01.505Z,8.30
2019-02-06T10:16:42.780Z,8.40
2019-02-06T10:19:24.287Z,8.40
2019-02-06T10:22:05.342Z,8.40
2019-02-06T10:24:46.140Z,8.50
2019-02-06T10:27:27.151Z,8.60
2019-02-06T10:30:07.945Z,8.70
2019-02-06T10:32:47.506Z,8.80
2019-02-06T10:38:38.473Z,8.90
2019-02-06T10:41:19.865Z,8.90
2019-02-06T10:44:00.523Z,8.90
2019-02-06T10:46:42.879Z,9.00
2019-02-06T10:49:24.296Z,9.00
2019-02-06T10:52:05.574Z,9.00
2019-02-06T10:54:46.628Z,9.10
2019-02-06T10:57:27.994Z,9.10
2019-02-06T11:00:09.358Z,9.10
2019-02-06T11:02:50.035Z,9.10
2019-02-06T11:05:31.442Z,9.20
2019-02-06T11:08:12.881Z,9.30
2019-02-06T11:10:54.412Z,9.30
2019-02-06T11:13:35.108Z,9.40
2019-02-06T11:16:16.720Z,9.50
2019-02-06T11:18:58.279Z,9.50
2019-02-06T11:21:39.335Z,9.50
2019-02-06T11:24:20.790Z,9.60
2019-02-06T11:27:02.006Z,9.60
2019-02-06T11:29:43.180Z,9.60
2019-02-06T11:32:23.982Z,9.70
2019-02-06T11:35:05.188Z,9.70
2019-02-06T11:37:46.475Z,9.70
2019-02-06T11:40:27.930Z,9.70
2019-02-06T11:43:08.812Z,9.80
2019-02-06T11:45:50.108Z,9.80
2019-02-06T11:48:31.395Z,9.90
2019-02-06T11:51:12.772Z,10.00
2019-02-06T11:53:54.348Z,10.00
2019-02-06T11:56:35.888Z,10.00
2019-02-06T11:59:15.894Z,10.00
2019-02-06T12:02:04.666Z,10.00
2019-02-06T12:04:47.848Z,10.00
2019-02-06T12:07:29.137Z,10.10
2019-02-06T12:10:10.646Z,10.10
2019-02-06T12:12:51.438Z,10.10
2019-02-06T12:15:32.346Z,10.10
2019-02-06T12:18:12.995Z,10.10
2019-02-06T12:20:52.554Z,10.10
2019-02-06T12:26:47.269Z,10.20
2019-02-06T12:29:28.669Z,10.20
2019-02-06T12:32:10.218Z,10.30
2019-02-06T12:34:50.988Z,10.20
2019-02-06T12:37:32.338Z,10.20
2019-02-06T12:40:21.051Z,10.30
2019-02-06T12:42:56.265Z,10.30
2019-02-06T12:45:35.999Z,10.30
2019-02-06T12:48:17.110Z,10.30
2019-02-06T12:50:58.420Z,10.30
2019-02-06T12:53:40.072Z,10.30
2019-02-06T12:56:21.641Z,10.30
2019-02-06T12:59:02.942Z,10.30
2019-02-06T13:01:44.114Z,10.40
2019-02-06T13:04:25.550Z,10.50
2019-02-06T13:07:06.943Z,10.50
2019-02-06T13:09:48.345Z,10.60
2019-02-06T13:12:29.650Z,10.60
2019-02-06T13:15:10.962Z,10.70
2019-02-06T13:17:52.193Z,10.70
2019-02-06T13:20:33.182Z,10.80
2019-02-06T13:23:14.307Z,10.80
2019-02-06T13:25:55.112Z,10.80
2019-02-06T13:28:36.591Z,10.80
2019-02-06T13:31:17.842Z,10.90
2019-02-06T13:33:59.242Z,10.90
2019-02-06T13:36:40.766Z,10.90
2019-02-06T13:39:22.123Z,10.90
2019-02-06T13:42:05.306Z,10.90
2019-02-06T13:44:52.421Z,11.00
2019-02-06T13:47:33.658Z,11.00
2019-02-06T13:50:22.092Z,11.00
2019-02-06T13:52:58.499Z,11.00
2019-02-06T13:55:39.926Z,11.10
2019-02-06T13:58:21.194Z,11.10
2019-02-06T14:01:02.629Z,11.10
2019-02-06T14:03:43.984Z,11.10
2019-02-06T14:06:25.558Z,11.10
2019-02-06T14:09:08.422Z,11.10
2019-02-06T14:15:02.265Z,11.10
2019-02-06T14:17:43.618Z,11.00
2019-02-06T14:20:25.045Z,11.10
2019-02-06T14:23:06.482Z,11.00
2019-02-06T14:25:47.134Z,11.00
2019-02-06T14:28:28.676Z,11.00
2019-02-06T14:31:09.444Z,11.00
2019-02-06T14:33:51.028Z,11.10
2019-02-06T14:36:32.390Z,11.10
2019-02-06T14:39:13.775Z,11.10
2019-02-06T14:41:55.593Z,11.10
2019-02-06T14:44:36.835Z,11.10
2019-02-06T14:51:01.289Z,11.00
2019-02-06T14:56:43.175Z,10.90
2019-02-06T14:59:25.599Z,10.80
2019-02-06T15:02:06.642Z,10.80
2019-02-06T15:04:48.146Z,10.70
2019-02-06T15:07:55.912Z,10.70
2019-02-06T15:10:48.750Z,10.60
2019-02-06T15:13:29.553Z,10.60
2019-02-06T15:16:10.869Z,10.50
2019-02-06T15:18:52.367Z,10.50
2019-02-06T15:21:33.930Z,10.50
2019-02-06T15:24:14.753Z,10.40
2019-02-06T15:26:56.046Z,10.30
2019-02-06T15:29:37.295Z,10.20
2019-02-06T15:32:18.975Z,10.10
2019-02-06T15:35:00.523Z,10.00
2019-02-06T15:37:41.805Z,10.00
2019-02-06T15:40:22.902Z,9.90
2019-02-06T15:43:04.500Z,9.90
2019-02-06T15:45:46.177Z,9.90
2019-02-06T15:48:27.622Z,9.80
2019-02-06T15:51:09.178Z,9.70
2019-02-06T15:53:50.568Z,9.70
2019-02-06T15:56:31.297Z,9.70
2019-02-06T15:59:12.587Z,9.60
2019-02-06T16:01:53.911Z,9.50
2019-02-06T16:04:57.422Z,9.50
2019-02-06T16:07:38.784Z,9.40
2019-02-06T16:10:20.091Z,9.40
2019-02-06T16:13:00.849Z,9.30
2019-02-06T16:23:43.002Z,9.30
2019-02-06T16:26:23.925Z,9.00
2019-02-06T16:29:04.575Z,8.90
2019-02-06T17:12:28.053Z,8.90
2019-02-06T17:15:08.874Z,8.10
2019-02-06T17:17:50.018Z,8.10
2019-02-06T17:20:31.120Z,8.00
2019-02-06T17:23:12.335Z,8.00
2019-02-06T17:25:53.552Z,8.10
2019-02-06T17:28:34.988Z,8.10
2019-02-06T17:31:16.074Z,8.10
2019-02-06T17:33:57.540Z,8.00
2019-02-06T17:36:38.864Z,8.00
2019-02-06T17:39:24.138Z,8.00
2019-02-06T17:42:02.424Z,7.90
2019-02-06T17:44:43.614Z,7.90
2019-02-06T17:47:25.028Z,7.90
2019-02-06T17:50:05.862Z,7.90
2019-02-06T17:52:46.936Z,7.90
2019-02-06T17:55:28.703Z,7.80
2019-02-06T17:58:10.208Z,7.80
2019-02-06T18:00:51.337Z,7.80
2019-02-06T18:03:32.442Z,7.90
2019-02-06T18:06:13.207Z,7.80
2019-02-06T18:08:56.711Z,7.80
2019-02-06T18:11:37.287Z,7.80
2019-02-06T18:14:18.073Z,7.80
2019-02-06T18:16:59.099Z,7.80
2019-02-06T18:19:39.820Z,7.80
2019-02-06T18:22:22.601Z,7.80
2019-02-06T18:25:03.354Z,7.80
2019-02-06T18:27:44.512Z,7.80
2019-02-06T18:30:26.127Z,7.80
2019-02-06T18:33:07.676Z,7.80
2019-02-06T18:35:49.276Z,7.80
2019-02-06T18:38:28.902Z,7.80
2019-02-06T18:41:17.600Z,7.80
2019-02-06T18:43:58.470Z,7.80
2019-02-06T18:46:39.862Z,7.80
2019-02-06T18:49:20.946Z,7.80
2019-02-06T18:52:02.301Z,7.80
2019-02-06T18:54:43.778Z,7.80
2019-02-06T18:57:25.369Z,7.80
2019-02-06T19:00:06.871Z,7.80
2019-02-06T19:02:48.214Z,7.80
2019-02-06T19:05:29.839Z,7.80
2019-02-06T19:08:11.158Z,7.70
2019-02-06T19:10:52.115Z,7.80
2019-02-06T19:13:33.747Z,7.70
2019-02-06T19:16:14.740Z,7.70
2019-02-06T19:18:56.164Z,7.70
2019-02-06T19:21:37.862Z,7.70
2019-02-06T19:24:19.571Z,7.60
2019-02-06T19:27:00.915Z,7.50
2019-02-06T19:29:42.239Z,7.50
2019-02-06T19:32:23.883Z,7.50
2019-02-06T19:35:05.333Z,7.50
2019-02-06T19:37:48.419Z,7.50
2019-02-06T19:40:29.665Z,7.50
2019-02-06T19:43:11.087Z,7.50
2019-02-06T19:45:52.790Z,7.40
2019-02-06T19:48:34.109Z,7.40
2019-02-06T19:51:15.781Z,7.40
2019-02-06T19:53:57.368Z,7.30
2019-02-06T19:56:42.002Z,7.30
2019-02-06T19:59:23.362Z,7.30
2019-02-06T20:02:05.101Z,7.30
2019-02-06T20:04:46.983Z,7.30
2019-02-06T20:07:29.026Z,7.30
2019-02-06T20:10:10.471Z,7.30
2019-02-06T20:12:52.246Z,7.30
2019-02-06T20:15:33.581Z,7.20
2019-02-06T20:18:15.205Z,7.20
2019-02-06T20:20:56.144Z,7.20
2019-02-06T20:26:47.596Z,7.00
2019-02-06T20:29:29.288Z,6.90
2019-02-06T20:32:10.543Z,6.70
2019-02-06T20:34:51.616Z,6.60
2019-02-06T20:37:32.962Z,6.50
2019-02-06T20:40:14.582Z,6.40
2019-02-06T20:42:55.966Z,6.40
2019-02-06T20:45:37.484Z,6.30
2019-02-06T20:48:18.907Z,6.20
2019-02-06T20:51:00.777Z,6.10
2019-02-06T20:53:42.162Z,6.00
2019-02-06T20:56:23.334Z,6.00
2019-02-06T20:59:04.952Z,5.90
2019-02-06T21:01:46.404Z,5.90
2019-02-06T21:04:27.858Z,5.80
2019-02-06T21:07:09.399Z,5.80
2019-02-06T21:09:51.043Z,5.70
2019-02-06T21:12:32.276Z,5.70
2019-02-06T21:15:13.509Z,5.60
2019-02-06T21:17:54.557Z,5.60
2019-02-06T21:20:35.744Z,5.50
2019-02-06T21:23:17.396Z,5.40
2019-02-06T21:25:58.278Z,5.40
2019-02-06T21:28:39.108Z,5.40
2019-02-06T21:31:20.421Z,5.30
2019-02-06T21:34:01.829Z,5.30
2019-02-06T21:36:42.818Z,5.20
2019-02-06T21:39:23.950Z,5.30
2019-02-06T21:42:05.410Z,5.20
2019-02-06T21:44:46.804Z,5.20
2019-02-06T21:47:28.244Z,5.20
2019-02-06T21:50:08.948Z,5.20
2019-02-06T21:52:50.296Z,5.30
2019-02-06T21:55:31.675Z,5.30
2019-02-06T21:58:12.720Z,5.30
2019-02-06T22:00:54.088Z,5.40
2019-02-06T22:03:35.411Z,5.40
2019-02-06T22:06:16.722Z,5.30
2019-02-06T22:08:57.453Z,5.30
2019-02-06T22:11:38.614Z,5.20
2019-02-06T22:14:20.197Z,5.20
2019-02-06T22:17:01.524Z,5.10
2019-02-06T22:19:42.497Z,5.00
2019-02-06T22:22:24.020Z,5.00
2019-02-06T22:25:04.122Z,5.00
2019-02-06T22:30:52.752Z,4.90
2019-02-06T22:33:34.193Z,4.90
2019-02-06T22:36:14.884Z,4.90
2019-02-06T22:38:56.328Z,4.80
2019-02-06T22:41:37.672Z,4.80
2019-02-06T22:44:18.349Z,4.80
2019-02-06T22:46:59.579Z,4.70
2019-02-06T22:49:41.062Z,4.80
2019-02-06T22:52:22.994Z,4.80
2019-02-06T22:55:04.840Z,4.80
2019-02-06T22:57:45.676Z,4.80
2019-02-06T23:00:28.242Z,4.80
2019-02-06T23:03:09.458Z,4.80
2019-02-06T23:05:50.818Z,4.80
2019-02-06T23:08:32.175Z,4.80
2019-02-06T23:11:13.735Z,4.80
2019-02-06T23:13:54.343Z,4.70
2019-02-06T23:16:33.869Z,4.70
2019-02-06T23:19:15.051Z,4.70
2019-02-06T23:21:56.495Z,4.70
2019-02-06T23:24:37.706Z,4.70
2019-02-06T23:27:19.114Z,4.60
2019-02-06T23:29:59.870Z,4.60
2019-02-06T23:32:41.117Z,4.60
2019-02-06T23:35:22.348Z,4.50
2019-02-06T23:38:03.726Z,4.50
2019-02-06T23:40:45.124Z,4.50
2019-02-06T23:43:26.104Z,4.50
2019-02-06T23:46:06.944Z,4.40
2019-02-06T23:48:48.123Z,4.40
2019-02-06T23:51:29.572Z,4.40
2019-02-06T23:54:10.255Z,4.40
2019-02-06T23:56:51.303Z,4.30
2019-02-06T23:59:32.478Z,4.30
